sensor_id;sensor_type;location;lat;lon;timestamp;temperature;humidity
52103;DHT22;38101;53.126;6.878;2023-10-19T00:00:33;8.60;99.90
52103;DHT22;38101;53.126;6.878;2023-10-19T00:03:00;8.60;99.90
52103;DHT22;38101;53.126;6.878;2023-10-19T00:05:29;8.60;99.90
52103;DHT22;38101;53.126;6.878;2023-10-19T00:07:56;8.60;99.90
52103;DHT22;38101;53.126;6.878;2023-10-19T00:10:26;8.60;99.90
52103;DHT22;38101;53.126;6.878;2023-10-19T00:12:58;8.60;99.90
52103;DHT22;38101;53.126;6.878;2023-10-19T00:15:32;8.60;99.90
52103;DHT22;38101;53.126;6.878;2023-10-19T00:18:00;8.50;99.90
52103;DHT22;38101;53.126;6.878;2023-10-19T00:20:38;8.50;99.90
52103;DHT22;38101;53.126;6.878;2023-10-19T00:23:07;8.50;99.90
52103;DHT22;38101;53.126;6.878;2023-10-19T00:25:35;8.50;99.90
52103;DHT22;38101;53.126;6.878;2023-10-19T00:28:01;8.50;99.90
52103;DHT22;38101;53.126;6.878;2023-10-19T00:30:30;8.50;99.90
52103;DHT22;38101;53.126;6.878;2023-10-19T00:32:58;8.50;99.90
52103;DHT22;38101;53.126;6.878;2023-10-19T00:35:30;8.60;99.90
52103;DHT22;38101;53.126;6.878;2023-10-19T00:38:07;8.50;99.90
52103;DHT22;38101;53.126;6.878;2023-10-19T00:40:52;8.50;99.90
52103;DHT22;38101;53.126;6.878;2023-10-19T00:43:29;8.50;99.90
52103;DHT22;38101;53.126;6.878;2023-10-19T00:45:59;8.50;99.90
52103;DHT22;38101;53.126;6.878;2023-10-19T00:48:27;8.50;99.90
52103;DHT22;38101;53.126;6.878;2023-10-19T00:50:54;8.40;99.90
52103;DHT22;38101;53.126;6.878;2023-10-19T00:53:34;8.40;99.90
52103;DHT22;38101;53.126;6.878;2023-10-19T00:56:01;8.50;99.90
52103;DHT22;38101;53.126;6.878;2023-10-19T00:58:30;8.40;99.90
52103;DHT22;38101;53.126;6.878;2023-10-19T01:00:56;8.50;99.90
52103;DHT22;38101;53.126;6.878;2023-10-19T01:03:26;8.50;99.90
52103;DHT22;38101;53.126;6.878;2023-10-19T01:05:57;8.40;99.90
52103;DHT22;38101;53.126;6.878;2023-10-19T01:08:23;8.50;99.90
52103;DHT22;38101;53.126;6.878;2023-10-19T01:10:52;8.40;99.90
52103;DHT22;38101;53.126;6.878;2023-10-19T01:13:18;8.40;99.90
52103;DHT22;38101;53.126;6.878;2023-10-19T01:15:53;8.40;99.90
52103;DHT22;38101;53.126;6.878;2023-10-19T01:18:18;8.40;99.90
52103;DHT22;38101;53.126;6.878;2023-10-19T01:20:44;8.40;99.90
52103;DHT22;38101;53.126;6.878;2023-10-19T01:23:16;8.50;99.90
52103;DHT22;38101;53.126;6.878;2023-10-19T01:26:02;8.40;99.90
52103;DHT22;38101;53.126;6.878;2023-10-19T01:28:37;8.40;99.90
52103;DHT22;38101;53.126;6.878;2023-10-19T01:31:08;8.30;99.90
52103;DHT22;38101;53.126;6.878;2023-10-19T01:33:34;8.30;99.90
52103;DHT22;38101;53.126;6.878;2023-10-19T01:36:00;8.30;99.90
52103;DHT22;38101;53.126;6.878;2023-10-19T01:38:45;8.30;99.90
52103;DHT22;38101;53.126;6.878;2023-10-19T01:41:13;8.40;99.90
52103;DHT22;38101;53.126;6.878;2023-10-19T01:43:43;8.30;99.90
52103;DHT22;38101;53.126;6.878;2023-10-19T01:46:09;8.40;99.90
52103;DHT22;38101;53.126;6.878;2023-10-19T01:48:39;8.40;99.90
52103;DHT22;38101;53.126;6.878;2023-10-19T01:51:07;8.40;99.90
52103;DHT22;38101;53.126;6.878;2023-10-19T01:53:36;8.40;99.90
52103;DHT22;38101;53.126;6.878;2023-10-19T01:56:07;8.40;99.90
52103;DHT22;38101;53.126;6.878;2023-10-19T01:58:38;8.30;99.90
52103;DHT22;38101;53.126;6.878;2023-10-19T02:01:08;8.30;99.90
52103;DHT22;38101;53.126;6.878;2023-10-19T02:03:43;8.30;99.90
52103;DHT22;38101;53.126;6.878;2023-10-19T02:06:10;8.30;99.90
52103;DHT22;38101;53.126;6.878;2023-10-19T02:09:06;8.30;99.90
52103;DHT22;38101;53.126;6.878;2023-10-19T02:11:54;8.30;99.90
52103;DHT22;38101;53.126;6.878;2023-10-19T02:14:25;8.30;99.90
52103;DHT22;38101;53.126;6.878;2023-10-19T02:16:53;8.30;99.90
52103;DHT22;38101;53.126;6.878;2023-10-19T02:19:22;8.30;99.90
52103;DHT22;38101;53.126;6.878;2023-10-19T02:22:02;8.40;99.90
52103;DHT22;38101;53.126;6.878;2023-10-19T02:24:37;8.30;99.90
52103;DHT22;38101;53.126;6.878;2023-10-19T02:27:04;8.30;99.90
52103;DHT22;38101;53.126;6.878;2023-10-19T02:29:30;8.30;99.90
52103;DHT22;38101;53.126;6.878;2023-10-19T02:31:57;8.40;99.90
52103;DHT22;38101;53.126;6.878;2023-10-19T02:34:23;8.40;99.90
52103;DHT22;38101;53.126;6.878;2023-10-19T02:36:48;8.30;99.90
52103;DHT22;38101;53.126;6.878;2023-10-19T02:39:14;8.30;99.90
52103;DHT22;38101;53.126;6.878;2023-10-19T02:41:48;8.30;99.90
52103;DHT22;38101;53.126;6.878;2023-10-19T02:44:15;8.30;99.90
52103;DHT22;38101;53.126;6.878;2023-10-19T02:46:41;8.40;99.90
52103;DHT22;38101;53.126;6.878;2023-10-19T02:49:08;8.30;99.90
52103;DHT22;38101;53.126;6.878;2023-10-19T02:51:39;8.30;99.90
52103;DHT22;38101;53.126;6.878;2023-10-19T02:54:07;8.20;99.90
52103;DHT22;38101;53.126;6.878;2023-10-19T02:56:33;8.20;99.90
52103;DHT22;38101;53.126;6.878;2023-10-19T02:59:05;8.20;99.90
52103;DHT22;38101;53.126;6.878;2023-10-19T03:01:31;8.20;99.90
52103;DHT22;38101;53.126;6.878;2023-10-19T03:04:00;8.20;99.90
52103;DHT22;38101;53.126;6.878;2023-10-19T03:06:30;8.20;99.90
52103;DHT22;38101;53.126;6.878;2023-10-19T03:09:00;8.20;99.90
52103;DHT22;38101;53.126;6.878;2023-10-19T03:11:47;8.30;99.90
52103;DHT22;38101;53.126;6.878;2023-10-19T03:14:18;8.30;99.90
52103;DHT22;38101;53.126;6.878;2023-10-19T03:16:44;8.30;99.90
52103;DHT22;38101;53.126;6.878;2023-10-19T03:19:10;8.30;99.90
52103;DHT22;38101;53.126;6.878;2023-10-19T03:21:37;8.30;99.90
52103;DHT22;38101;53.126;6.878;2023-10-19T03:24:23;8.30;99.90
52103;DHT22;38101;53.126;6.878;2023-10-19T03:27:04;8.30;99.90
52103;DHT22;38101;53.126;6.878;2023-10-19T03:29:50;8.30;99.90
52103;DHT22;38101;53.126;6.878;2023-10-19T03:32:21;8.40;99.90
52103;DHT22;38101;53.126;6.878;2023-10-19T03:34:54;8.30;99.90
52103;DHT22;38101;53.126;6.878;2023-10-19T03:37:26;8.30;99.90
52103;DHT22;38101;53.126;6.878;2023-10-19T03:39:54;8.40;99.90
52103;DHT22;38101;53.126;6.878;2023-10-19T03:42:21;8.40;99.90
52103;DHT22;38101;53.126;6.878;2023-10-19T03:44:51;8.40;99.90
52103;DHT22;38101;53.126;6.878;2023-10-19T03:47:17;8.40;99.90
52103;DHT22;38101;53.126;6.878;2023-10-19T03:49:47;8.40;99.90
52103;DHT22;38101;53.126;6.878;2023-10-19T03:52:13;8.40;99.90
52103;DHT22;38101;53.126;6.878;2023-10-19T03:54:40;8.40;99.90
52103;DHT22;38101;53.126;6.878;2023-10-19T03:57:11;8.40;99.90
52103;DHT22;38101;53.126;6.878;2023-10-19T03:59:51;8.40;99.90
52103;DHT22;38101;53.126;6.878;2023-10-19T04:02:21;8.50;99.90
52103;DHT22;38101;53.126;6.878;2023-10-19T04:04:49;8.40;99.90
52103;DHT22;38101;53.126;6.878;2023-10-19T04:07:16;8.40;99.90
52103;DHT22;38101;53.126;6.878;2023-10-19T04:09:47;8.40;99.90
52103;DHT22;38101;53.126;6.878;2023-10-19T04:12:38;8.40;99.90
52103;DHT22;38101;53.126;6.878;2023-10-19T04:15:07;8.40;99.90
52103;DHT22;38101;53.126;6.878;2023-10-19T04:17:46;8.40;99.90
52103;DHT22;38101;53.126;6.878;2023-10-19T04:20:17;8.40;99.90
52103;DHT22;38101;53.126;6.878;2023-10-19T04:22:48;8.40;99.90
52103;DHT22;38101;53.126;6.878;2023-10-19T04:25:15;8.40;99.90
52103;DHT22;38101;53.126;6.878;2023-10-19T04:27:54;8.50;99.90
52103;DHT22;38101;53.126;6.878;2023-10-19T04:30:22;8.50;99.90
52103;DHT22;38101;53.126;6.878;2023-10-19T04:32:49;8.50;99.90
52103;DHT22;38101;53.126;6.878;2023-10-19T04:35:16;8.50;99.90
52103;DHT22;38101;53.126;6.878;2023-10-19T04:37:52;8.50;99.90
52103;DHT22;38101;53.126;6.878;2023-10-19T04:40:19;8.50;99.90
52103;DHT22;38101;53.126;6.878;2023-10-19T04:42:46;8.50;99.90
52103;DHT22;38101;53.126;6.878;2023-10-19T04:45:12;8.50;99.90
52103;DHT22;38101;53.126;6.878;2023-10-19T04:47:39;8.50;99.90
52103;DHT22;38101;53.126;6.878;2023-10-19T04:50:05;8.50;99.90
52103;DHT22;38101;53.126;6.878;2023-10-19T04:52:31;8.50;99.90
52103;DHT22;38101;53.126;6.878;2023-10-19T04:54:58;8.40;99.90
52103;DHT22;38101;53.126;6.878;2023-10-19T04:57:24;8.40;99.90
52103;DHT22;38101;53.126;6.878;2023-10-19T04:59:50;8.40;99.90
52103;DHT22;38101;53.126;6.878;2023-10-19T05:02:15;8.50;99.90
52103;DHT22;38101;53.126;6.878;2023-10-19T05:04:42;8.40;99.90
52103;DHT22;38101;53.126;6.878;2023-10-19T05:07:09;8.50;99.90
52103;DHT22;38101;53.126;6.878;2023-10-19T05:09:37;8.50;99.90
52103;DHT22;38101;53.126;6.878;2023-10-19T05:12:05;8.40;99.90
52103;DHT22;38101;53.126;6.878;2023-10-19T05:14:43;8.50;99.90
52103;DHT22;38101;53.126;6.878;2023-10-19T05:17:10;8.40;99.90
52103;DHT22;38101;53.126;6.878;2023-10-19T05:19:36;8.40;99.90
52103;DHT22;38101;53.126;6.878;2023-10-19T05:22:05;8.40;99.90
52103;DHT22;38101;53.126;6.878;2023-10-19T05:24:34;8.40;99.90
52103;DHT22;38101;53.126;6.878;2023-10-19T05:27:01;8.40;99.90
52103;DHT22;38101;53.126;6.878;2023-10-19T05:29:26;8.40;99.90
52103;DHT22;38101;53.126;6.878;2023-10-19T05:31:53;8.50;99.90
52103;DHT22;38101;53.126;6.878;2023-10-19T05:34:20;8.50;99.90
52103;DHT22;38101;53.126;6.878;2023-10-19T05:36:46;8.50;99.90
52103;DHT22;38101;53.126;6.878;2023-10-19T05:39:17;8.50;99.90
52103;DHT22;38101;53.126;6.878;2023-10-19T05:41:43;8.40;99.90
52103;DHT22;38101;53.126;6.878;2023-10-19T05:44:09;8.40;99.90
52103;DHT22;38101;53.126;6.878;2023-10-19T05:46:35;8.40;99.90
52103;DHT22;38101;53.126;6.878;2023-10-19T05:49:01;8.40;99.90
52103;DHT22;38101;53.126;6.878;2023-10-19T05:51:32;8.40;99.90
52103;DHT22;38101;53.126;6.878;2023-10-19T05:53:58;8.40;99.90
52103;DHT22;38101;53.126;6.878;2023-10-19T05:56:30;8.40;99.90
52103;DHT22;38101;53.126;6.878;2023-10-19T05:58:57;8.40;99.90
52103;DHT22;38101;53.126;6.878;2023-10-19T06:01:23;8.40;99.90
52103;DHT22;38101;53.126;6.878;2023-10-19T06:03:49;8.40;99.90
52103;DHT22;38101;53.126;6.878;2023-10-19T06:06:16;8.40;99.90
52103;DHT22;38101;53.126;6.878;2023-10-19T06:08:41;8.60;99.90
52103;DHT22;38101;53.126;6.878;2023-10-19T06:11:07;8.50;99.90
52103;DHT22;38101;53.126;6.878;2023-10-19T06:13:33;8.50;99.90
52103;DHT22;38101;53.126;6.878;2023-10-19T06:15:58;8.40;99.90
52103;DHT22;38101;53.126;6.878;2023-10-19T06:18:24;8.40;99.90
52103;DHT22;38101;53.126;6.878;2023-10-19T06:20:50;8.40;99.90
52103;DHT22;38101;53.126;6.878;2023-10-19T06:23:17;8.40;99.90
52103;DHT22;38101;53.126;6.878;2023-10-19T06:25:43;8.50;99.90
52103;DHT22;38101;53.126;6.878;2023-10-19T06:28:09;8.40;99.90
52103;DHT22;38101;53.126;6.878;2023-10-19T06:30:37;8.50;99.90
52103;DHT22;38101;53.126;6.878;2023-10-19T06:33:03;8.40;99.90
52103;DHT22;38101;53.126;6.878;2023-10-19T06:35:30;8.50;99.90
52103;DHT22;38101;53.126;6.878;2023-10-19T06:38:01;8.50;99.90
52103;DHT22;38101;53.126;6.878;2023-10-19T06:40:29;8.50;99.90
52103;DHT22;38101;53.126;6.878;2023-10-19T06:42:57;8.50;99.90
52103;DHT22;38101;53.126;6.878;2023-10-19T06:45:23;8.50;99.90
52103;DHT22;38101;53.126;6.878;2023-10-19T06:47:51;8.50;99.90
52103;DHT22;38101;53.126;6.878;2023-10-19T06:50:19;8.50;99.90
52103;DHT22;38101;53.126;6.878;2023-10-19T06:52:46;8.50;99.90
52103;DHT22;38101;53.126;6.878;2023-10-19T06:55:13;8.50;99.90
52103;DHT22;38101;53.126;6.878;2023-10-19T06:57:43;8.50;99.90
52103;DHT22;38101;53.126;6.878;2023-10-19T07:00:13;8.50;99.90
52103;DHT22;38101;53.126;6.878;2023-10-19T07:02:46;8.50;99.90
52103;DHT22;38101;53.126;6.878;2023-10-19T07:05:13;8.50;99.90
52103;DHT22;38101;53.126;6.878;2023-10-19T07:07:41;8.50;99.90
52103;DHT22;38101;53.126;6.878;2023-10-19T07:10:10;8.50;99.90
52103;DHT22;38101;53.126;6.878;2023-10-19T07:12:38;8.50;99.90
52103;DHT22;38101;53.126;6.878;2023-10-19T07:15:08;8.40;99.90
52103;DHT22;38101;53.126;6.878;2023-10-19T07:17:37;8.50;99.90
52103;DHT22;38101;53.126;6.878;2023-10-19T07:20:05;8.50;99.90
52103;DHT22;38101;53.126;6.878;2023-10-19T07:22:32;8.40;99.90
52103;DHT22;38101;53.126;6.878;2023-10-19T07:24:58;8.50;99.90
52103;DHT22;38101;53.126;6.878;2023-10-19T07:27:25;8.50;99.90
52103;DHT22;38101;53.126;6.878;2023-10-19T07:29:53;8.50;99.90
52103;DHT22;38101;53.126;6.878;2023-10-19T07:32:19;8.50;99.90
52103;DHT22;38101;53.126;6.878;2023-10-19T07:34:45;8.50;99.90
52103;DHT22;38101;53.126;6.878;2023-10-19T07:37:11;8.50;99.90
52103;DHT22;38101;53.126;6.878;2023-10-19T07:39:45;8.50;99.90
52103;DHT22;38101;53.126;6.878;2023-10-19T07:42:11;8.50;99.90
52103;DHT22;38101;53.126;6.878;2023-10-19T07:44:37;8.50;99.90
52103;DHT22;38101;53.126;6.878;2023-10-19T07:47:03;8.50;99.90
52103;DHT22;38101;53.126;6.878;2023-10-19T07:49:28;8.50;99.90
52103;DHT22;38101;53.126;6.878;2023-10-19T07:51:54;8.50;99.90
52103;DHT22;38101;53.126;6.878;2023-10-19T07:54:20;8.60;99.90
52103;DHT22;38101;53.126;6.878;2023-10-19T07:56:46;8.50;99.90
52103;DHT22;38101;53.126;6.878;2023-10-19T07:59:12;8.60;99.90
52103;DHT22;38101;53.126;6.878;2023-10-19T08:01:39;8.50;99.90
52103;DHT22;38101;53.126;6.878;2023-10-19T08:04:05;8.60;99.90
52103;DHT22;38101;53.126;6.878;2023-10-19T08:06:31;8.50;99.90
52103;DHT22;38101;53.126;6.878;2023-10-19T08:08:57;8.50;99.90
52103;DHT22;38101;53.126;6.878;2023-10-19T08:11:23;8.50;99.90
52103;DHT22;38101;53.126;6.878;2023-10-19T08:13:49;8.50;99.90
52103;DHT22;38101;53.126;6.878;2023-10-19T08:16:15;8.50;99.90
52103;DHT22;38101;53.126;6.878;2023-10-19T08:18:42;8.50;99.90
52103;DHT22;38101;53.126;6.878;2023-10-19T08:21:08;8.50;99.90
52103;DHT22;38101;53.126;6.878;2023-10-19T08:23:34;8.50;99.90
52103;DHT22;38101;53.126;6.878;2023-10-19T08:26:00;8.50;99.90
52103;DHT22;38101;53.126;6.878;2023-10-19T08:28:26;8.50;99.90
52103;DHT22;38101;53.126;6.878;2023-10-19T08:30:52;8.60;99.90
52103;DHT22;38101;53.126;6.878;2023-10-19T08:33:26;8.50;99.90
52103;DHT22;38101;53.126;6.878;2023-10-19T08:35:53;8.50;99.90
52103;DHT22;38101;53.126;6.878;2023-10-19T08:38:28;8.50;99.90
52103;DHT22;38101;53.126;6.878;2023-10-19T08:40:54;8.50;99.90
52103;DHT22;38101;53.126;6.878;2023-10-19T08:43:20;8.50;99.90
52103;DHT22;38101;53.126;6.878;2023-10-19T08:45:47;8.50;99.90
52103;DHT22;38101;53.126;6.878;2023-10-19T08:48:13;8.40;99.90
52103;DHT22;38101;53.126;6.878;2023-10-19T08:50:39;8.50;99.90
52103;DHT22;38101;53.126;6.878;2023-10-19T08:53:07;8.50;99.90
52103;DHT22;38101;53.126;6.878;2023-10-19T08:55:39;8.50;99.90
52103;DHT22;38101;53.126;6.878;2023-10-19T08:58:05;8.60;99.90
52103;DHT22;38101;53.126;6.878;2023-10-19T09:00:43;8.50;99.90
52103;DHT22;38101;53.126;6.878;2023-10-19T09:03:13;8.60;99.90
52103;DHT22;38101;53.126;6.878;2023-10-19T09:05:40;8.70;99.90
52103;DHT22;38101;53.126;6.878;2023-10-19T09:08:06;8.60;99.90
52103;DHT22;38101;53.126;6.878;2023-10-19T09:10:32;8.60;99.90
52103;DHT22;38101;53.126;6.878;2023-10-19T09:13:02;8.60;99.90
52103;DHT22;38101;53.126;6.878;2023-10-19T09:15:29;8.70;99.90
52103;DHT22;38101;53.126;6.878;2023-10-19T09:18:23;8.70;99.90
52103;DHT22;38101;53.126;6.878;2023-10-19T09:20:51;8.70;99.90
52103;DHT22;38101;53.126;6.878;2023-10-19T09:23:21;8.70;99.90
52103;DHT22;38101;53.126;6.878;2023-10-19T09:25:50;8.70;99.90
52103;DHT22;38101;53.126;6.878;2023-10-19T09:28:18;8.80;99.90
52103;DHT22;38101;53.126;6.878;2023-10-19T09:30:44;8.80;99.90
52103;DHT22;38101;53.126;6.878;2023-10-19T09:33:13;8.80;99.90
52103;DHT22;38101;53.126;6.878;2023-10-19T09:35:40;8.90;99.90
52103;DHT22;38101;53.126;6.878;2023-10-19T09:38:09;8.80;99.90
52103;DHT22;38101;53.126;6.878;2023-10-19T09:40:34;8.80;99.90
52103;DHT22;38101;53.126;6.878;2023-10-19T09:43:05;8.80;99.90
52103;DHT22;38101;53.126;6.878;2023-10-19T09:45:37;9.00;99.90
52103;DHT22;38101;53.126;6.878;2023-10-19T09:48:07;8.90;99.90
52103;DHT22;38101;53.126;6.878;2023-10-19T09:50:34;8.90;99.90
52103;DHT22;38101;53.126;6.878;2023-10-19T09:53:01;8.90;99.90
52103;DHT22;38101;53.126;6.878;2023-10-19T09:55:37;8.90;99.90
52103;DHT22;38101;53.126;6.878;2023-10-19T09:58:16;9.00;99.90
52103;DHT22;38101;53.126;6.878;2023-10-19T10:00:47;9.00;99.90
52103;DHT22;38101;53.126;6.878;2023-10-19T10:06:12;9.00;99.90
52103;DHT22;38101;53.126;6.878;2023-10-19T10:08:40;9.00;99.90
52103;DHT22;38101;53.126;6.878;2023-10-19T10:11:18;9.00;99.90
52103;DHT22;38101;53.126;6.878;2023-10-19T10:13:45;9.00;99.90
52103;DHT22;38101;53.126;6.878;2023-10-19T10:16:14;9.00;99.90
52103;DHT22;38101;53.126;6.878;2023-10-19T10:18:41;9.10;99.90
52103;DHT22;38101;53.126;6.878;2023-10-19T10:21:21;9.10;99.90
52103;DHT22;38101;53.126;6.878;2023-10-19T10:23:58;9.10;99.90
52103;DHT22;38101;53.126;6.878;2023-10-19T10:26:29;9.10;99.90
52103;DHT22;38101;53.126;6.878;2023-10-19T10:29:12;9.10;99.90
52103;DHT22;38101;53.126;6.878;2023-10-19T10:31:47;9.10;99.90
52103;DHT22;38101;53.126;6.878;2023-10-19T10:37:07;9.20;99.90
52103;DHT22;38101;53.126;6.878;2023-10-19T10:39:38;9.20;99.90
52103;DHT22;38101;53.126;6.878;2023-10-19T10:42:09;9.30;99.90
52103;DHT22;38101;53.126;6.878;2023-10-19T10:44:39;9.20;99.90
52103;DHT22;38101;53.126;6.878;2023-10-19T10:49:49;9.40;99.90
52103;DHT22;38101;53.126;6.878;2023-10-19T10:52:29;9.30;99.90
52103;DHT22;38101;53.126;6.878;2023-10-19T10:54:56;9.40;99.90
52103;DHT22;38101;53.126;6.878;2023-10-19T10:57:32;9.40;99.90
52103;DHT22;38101;53.126;6.878;2023-10-19T11:00:09;9.40;99.90
52103;DHT22;38101;53.126;6.878;2023-10-19T11:02:36;9.40;99.90
52103;DHT22;38101;53.126;6.878;2023-10-19T11:05:02;9.50;99.90
52103;DHT22;38101;53.126;6.878;2023-10-19T11:07:29;9.50;99.90
52103;DHT22;38101;53.126;6.878;2023-10-19T11:09:55;9.50;99.90
52103;DHT22;38101;53.126;6.878;2023-10-19T11:12:20;9.50;99.90
52103;DHT22;38101;53.126;6.878;2023-10-19T11:14:56;9.50;99.90
52103;DHT22;38101;53.126;6.878;2023-10-19T11:17:23;9.50;99.90
52103;DHT22;38101;53.126;6.878;2023-10-19T11:19:58;9.60;99.90
52103;DHT22;38101;53.126;6.878;2023-10-19T11:22:26;9.60;99.90
52103;DHT22;38101;53.126;6.878;2023-10-19T11:24:55;9.70;99.90
52103;DHT22;38101;53.126;6.878;2023-10-19T11:27:28;9.60;99.90
52103;DHT22;38101;53.126;6.878;2023-10-19T11:29:58;9.60;99.90
52103;DHT22;38101;53.126;6.878;2023-10-19T11:32:25;9.60;99.90
52103;DHT22;38101;53.126;6.878;2023-10-19T11:34:54;9.60;99.90
52103;DHT22;38101;53.126;6.878;2023-10-19T11:37:20;9.60;99.90
52103;DHT22;38101;53.126;6.878;2023-10-19T11:39:46;9.60;99.90
52103;DHT22;38101;53.126;6.878;2023-10-19T11:42:12;9.60;99.90
52103;DHT22;38101;53.126;6.878;2023-10-19T11:44:39;9.60;99.90
52103;DHT22;38101;53.126;6.878;2023-10-19T11:47:05;9.60;99.90
52103;DHT22;38101;53.126;6.878;2023-10-19T11:49:30;9.60;99.90
52103;DHT22;38101;53.126;6.878;2023-10-19T11:51:56;9.60;99.90
52103;DHT22;38101;53.126;6.878;2023-10-19T11:54:23;9.60;99.90
52103;DHT22;38101;53.126;6.878;2023-10-19T11:56:48;9.60;99.90
52103;DHT22;38101;53.126;6.878;2023-10-19T11:59:14;9.60;99.90
52103;DHT22;38101;53.126;6.878;2023-10-19T12:01:41;9.50;99.90
52103;DHT22;38101;53.126;6.878;2023-10-19T12:04:08;9.50;99.90
52103;DHT22;38101;53.126;6.878;2023-10-19T12:06:35;9.50;99.90
52103;DHT22;38101;53.126;6.878;2023-10-19T12:09:00;9.50;99.90
52103;DHT22;38101;53.126;6.878;2023-10-19T12:11:40;9.50;99.90
52103;DHT22;38101;53.126;6.878;2023-10-19T12:14:06;9.60;99.90
52103;DHT22;38101;53.126;6.878;2023-10-19T12:16:34;9.60;99.90
52103;DHT22;38101;53.126;6.878;2023-10-19T12:19:01;9.50;99.90
52103;DHT22;38101;53.126;6.878;2023-10-19T12:21:28;9.60;99.90
52103;DHT22;38101;53.126;6.878;2023-10-19T12:23:56;9.60;99.90
52103;DHT22;38101;53.126;6.878;2023-10-19T12:26:23;9.60;99.90
52103;DHT22;38101;53.126;6.878;2023-10-19T12:28:49;9.70;99.90
52103;DHT22;38101;53.126;6.878;2023-10-19T12:31:15;9.70;99.90
52103;DHT22;38101;53.126;6.878;2023-10-19T12:33:44;9.70;99.90
52103;DHT22;38101;53.126;6.878;2023-10-19T12:36:10;9.70;99.90
52103;DHT22;38101;53.126;6.878;2023-10-19T12:38:48;9.60;99.90
52103;DHT22;38101;53.126;6.878;2023-10-19T12:41:15;9.60;99.90
52103;DHT22;38101;53.126;6.878;2023-10-19T12:43:40;9.60;99.90
52103;DHT22;38101;53.126;6.878;2023-10-19T12:46:07;9.60;99.90
52103;DHT22;38101;53.126;6.878;2023-10-19T12:48:34;9.60;99.90
52103;DHT22;38101;53.126;6.878;2023-10-19T12:51:04;9.60;99.90
52103;DHT22;38101;53.126;6.878;2023-10-19T12:53:32;9.50;99.90
52103;DHT22;38101;53.126;6.878;2023-10-19T12:55:58;9.50;99.90
52103;DHT22;38101;53.126;6.878;2023-10-19T12:58:25;9.40;99.90
52103;DHT22;38101;53.126;6.878;2023-10-19T13:00:53;9.40;99.90
52103;DHT22;38101;53.126;6.878;2023-10-19T13:03:20;9.40;99.90
52103;DHT22;38101;53.126;6.878;2023-10-19T13:05:47;9.40;99.90
52103;DHT22;38101;53.126;6.878;2023-10-19T13:08:15;9.40;99.90
52103;DHT22;38101;53.126;6.878;2023-10-19T13:10:43;9.40;99.90
52103;DHT22;38101;53.126;6.878;2023-10-19T13:13:10;9.40;99.90
52103;DHT22;38101;53.126;6.878;2023-10-19T13:15:41;9.50;99.90
52103;DHT22;38101;53.126;6.878;2023-10-19T13:18:08;9.40;99.90
52103;DHT22;38101;53.126;6.878;2023-10-19T13:20:39;9.50;99.90
52103;DHT22;38101;53.126;6.878;2023-10-19T13:23:10;9.50;99.90
52103;DHT22;38101;53.126;6.878;2023-10-19T13:25:41;9.50;99.90
52103;DHT22;38101;53.126;6.878;2023-10-19T13:28:12;9.40;99.90
52103;DHT22;38101;53.126;6.878;2023-10-19T13:30:40;9.40;99.90
52103;DHT22;38101;53.126;6.878;2023-10-19T13:33:06;9.50;99.90
52103;DHT22;38101;53.126;6.878;2023-10-19T13:35:38;9.40;99.90
52103;DHT22;38101;53.126;6.878;2023-10-19T13:38:08;9.40;99.90
52103;DHT22;38101;53.126;6.878;2023-10-19T13:40:35;9.40;99.90
52103;DHT22;38101;53.126;6.878;2023-10-19T13:43:02;9.40;99.90
52103;DHT22;38101;53.126;6.878;2023-10-19T13:45:34;9.40;99.90
52103;DHT22;38101;53.126;6.878;2023-10-19T13:48:02;9.50;99.90
52103;DHT22;38101;53.126;6.878;2023-10-19T13:50:31;9.40;99.90
52103;DHT22;38101;53.126;6.878;2023-10-19T13:52:59;9.40;99.90
52103;DHT22;38101;53.126;6.878;2023-10-19T13:55:29;9.40;99.90
52103;DHT22;38101;53.126;6.878;2023-10-19T13:57:55;9.50;99.90
52103;DHT22;38101;53.126;6.878;2023-10-19T14:00:22;9.50;99.90
52103;DHT22;38101;53.126;6.878;2023-10-19T14:03:01;9.50;99.90
52103;DHT22;38101;53.126;6.878;2023-10-19T14:05:28;9.40;99.90
52103;DHT22;38101;53.126;6.878;2023-10-19T14:07:55;9.40;99.90
52103;DHT22;38101;53.126;6.878;2023-10-19T14:10:21;9.30;99.90
52103;DHT22;38101;53.126;6.878;2023-10-19T14:12:48;9.40;99.90
52103;DHT22;38101;53.126;6.878;2023-10-19T14:15:18;9.40;99.90
52103;DHT22;38101;53.126;6.878;2023-10-19T14:17:46;9.40;99.90
52103;DHT22;38101;53.126;6.878;2023-10-19T14:20:13;9.40;99.90
52103;DHT22;38101;53.126;6.878;2023-10-19T14:22:48;9.40;99.90
52103;DHT22;38101;53.126;6.878;2023-10-19T14:25:15;9.40;99.90
52103;DHT22;38101;53.126;6.878;2023-10-19T14:27:45;9.40;99.90
52103;DHT22;38101;53.126;6.878;2023-10-19T14:30:12;9.40;99.90
52103;DHT22;38101;53.126;6.878;2023-10-19T14:32:56;9.40;99.90
52103;DHT22;38101;53.126;6.878;2023-10-19T14:35:23;9.40;99.90
52103;DHT22;38101;53.126;6.878;2023-10-19T14:37:51;9.40;99.90
52103;DHT22;38101;53.126;6.878;2023-10-19T14:40:23;9.40;99.90
52103;DHT22;38101;53.126;6.878;2023-10-19T14:42:50;9.30;99.90
52103;DHT22;38101;53.126;6.878;2023-10-19T14:45:19;9.40;99.90
52103;DHT22;38101;53.126;6.878;2023-10-19T14:47:49;9.30;99.90
52103;DHT22;38101;53.126;6.878;2023-10-19T14:50:20;9.40;99.90
52103;DHT22;38101;53.126;6.878;2023-10-19T14:52:47;9.40;99.90
52103;DHT22;38101;53.126;6.878;2023-10-19T14:55:15;9.30;99.90
52103;DHT22;38101;53.126;6.878;2023-10-19T14:57:46;9.30;99.90
52103;DHT22;38101;53.126;6.878;2023-10-19T15:00:17;9.40;99.90
52103;DHT22;38101;53.126;6.878;2023-10-19T15:02:57;9.30;99.90
52103;DHT22;38101;53.126;6.878;2023-10-19T15:05:27;9.30;99.90
52103;DHT22;38101;53.126;6.878;2023-10-19T15:07:53;9.30;99.90
52103;DHT22;38101;53.126;6.878;2023-10-19T15:10:25;9.30;99.90
52103;DHT22;38101;53.126;6.878;2023-10-19T15:12:55;9.30;99.90
52103;DHT22;38101;53.126;6.878;2023-10-19T15:15:25;9.30;99.90
52103;DHT22;38101;53.126;6.878;2023-10-19T15:17:51;9.20;99.90
52103;DHT22;38101;53.126;6.878;2023-10-19T15:20:19;9.20;99.90
52103;DHT22;38101;53.126;6.878;2023-10-19T15:22:46;9.20;99.90
52103;DHT22;38101;53.126;6.878;2023-10-19T15:25:13;9.20;99.90
52103;DHT22;38101;53.126;6.878;2023-10-19T15:27:40;9.20;99.90
52103;DHT22;38101;53.126;6.878;2023-10-19T15:30:07;9.20;99.90
52103;DHT22;38101;53.126;6.878;2023-10-19T15:32:34;9.20;99.90
52103;DHT22;38101;53.126;6.878;2023-10-19T15:35:01;9.20;99.90
52103;DHT22;38101;53.126;6.878;2023-10-19T15:37:27;9.20;99.90
52103;DHT22;38101;53.126;6.878;2023-10-19T15:39:53;9.20;99.90
52103;DHT22;38101;53.126;6.878;2023-10-19T15:42:19;9.20;99.90
52103;DHT22;38101;53.126;6.878;2023-10-19T15:44:47;9.20;99.90
52103;DHT22;38101;53.126;6.878;2023-10-19T15:47:14;9.20;99.90
52103;DHT22;38101;53.126;6.878;2023-10-19T15:49:52;9.20;99.90
52103;DHT22;38101;53.126;6.878;2023-10-19T15:52:25;9.20;99.90
52103;DHT22;38101;53.126;6.878;2023-10-19T15:54:53;9.20;99.90
52103;DHT22;38101;53.126;6.878;2023-10-19T15:57:19;9.20;99.90
52103;DHT22;38101;53.126;6.878;2023-10-19T15:59:46;9.20;99.90
52103;DHT22;38101;53.126;6.878;2023-10-19T16:02:13;9.20;99.90
52103;DHT22;38101;53.126;6.878;2023-10-19T16:04:40;9.20;99.90